createdAt,value
2023-03-21T00:01:53.566Z,9.92
2023-03-21T00:04:28.321Z,9.92
2023-03-21T00:06:56.691Z,9.90
2023-03-21T00:09:24.274Z,9.88
2023-03-21T00:11:51.131Z,9.88
2023-03-21T00:14:20.868Z,9.88
2023-03-21T00:16:52.174Z,9.87
2023-03-21T00:19:21.127Z,9.86
2023-03-21T00:22:08.760Z,9.85
2023-03-21T00:24:37.340Z,9.84
2023-03-21T00:27:33.731Z,9.83
2023-03-21T00:29:55.322Z,9.82
2023-03-21T00:32:22.765Z,9.83
2023-03-21T00:35:34.805Z,9.78
2023-03-21T00:37:37.240Z,9.74
2023-03-21T00:40:23.109Z,9.72
2023-03-21T00:42:52.531Z,9.67
2023-03-21T00:45:21.908Z,9.66
2023-03-21T00:47:49.108Z,9.62
2023-03-21T00:50:16.564Z,9.60
2023-03-21T00:52:43.863Z,9.59
2023-03-21T00:55:17.810Z,9.58
2023-03-21T00:57:47.460Z,9.58
2023-03-21T01:00:20.148Z,9.58
2023-03-21T01:03:02.546Z,9.58
2023-03-21T01:06:00.882Z,9.57
2023-03-21T01:08:35.236Z,9.56
2023-03-21T01:11:15.731Z,9.53
2023-03-21T01:13:53.749Z,9.55
2023-03-21T01:16:25.429Z,9.54
2023-03-21T01:18:53.080Z,9.53
2023-03-21T01:21:20.645Z,9.52
2023-03-21T01:23:48.072Z,9.52
2023-03-21T01:26:15.943Z,9.52
2023-03-21T01:28:45.993Z,9.52
2023-03-21T01:31:16.882Z,9.55
2023-03-21T01:33:45.292Z,9.53
2023-03-21T01:36:23.565Z,9.54
2023-03-21T01:38:54.167Z,9.54
2023-03-21T01:41:43.455Z,9.57
2023-03-21T01:44:26.472Z,9.58
2023-03-21T01:47:12.272Z,9.58
2023-03-21T01:49:52.749Z,9.59
2023-03-21T01:52:37.048Z,9.58
2023-03-21T01:55:14.678Z,9.58
2023-03-21T01:58:05.467Z,9.60
2023-03-21T02:01:10.720Z,9.59
2023-03-21T02:03:50.841Z,9.62
2023-03-21T02:07:07.347Z,9.64
2023-03-21T02:09:50.794Z,9.64
2023-03-21T02:12:21.173Z,9.64
2023-03-21T02:14:51.649Z,9.66
2023-03-21T02:18:15.396Z,9.65
2023-03-21T02:21:46.374Z,9.67
2023-03-21T02:25:01.268Z,9.67
2023-03-21T02:27:47.161Z,9.66
2023-03-21T02:30:50.787Z,9.67
2023-03-21T02:34:10.026Z,9.64
2023-03-21T02:37:07.292Z,9.62
2023-03-21T02:40:19.886Z,9.61
2023-03-21T02:43:22.546Z,9.60
2023-03-21T02:46:16.770Z,9.58
2023-03-21T02:49:01.067Z,9.55
2023-03-21T02:51:32.450Z,9.56
2023-03-21T02:54:28.268Z,9.53
2023-03-21T02:56:58.150Z,9.50
2023-03-21T02:59:29.025Z,9.50
2023-03-21T03:02:00.365Z,9.50
2023-03-21T03:04:28.728Z,9.49
2023-03-21T03:06:58.609Z,9.48
2023-03-21T03:09:49.045Z,9.48
2023-03-21T03:12:37.567Z,9.47
2023-03-21T03:15:48.066Z,9.48
2023-03-21T03:18:46.109Z,9.47
2023-03-21T03:21:47.478Z,9.46
2023-03-21T03:24:53.716Z,9.45
2023-03-21T03:27:32.442Z,9.44
2023-03-21T03:30:07.946Z,9.43
2023-03-21T03:32:48.924Z,9.45
2023-03-21T03:35:20.178Z,9.45
2023-03-21T03:37:56.514Z,9.43
2023-03-21T03:40:49.534Z,9.43
2023-03-21T03:43:43.510Z,9.38
2023-03-21T03:46:21.946Z,9.36
2023-03-21T03:49:19.333Z,9.36
2023-03-21T03:52:04.074Z,9.36
2023-03-21T03:54:44.107Z,9.33
2023-03-21T03:57:13.898Z,9.34
2023-03-21T03:59:45.238Z,9.32
2023-03-21T04:02:23.709Z,9.32
2023-03-21T04:04:53.709Z,9.32
2023-03-21T04:07:22.376Z,9.32
2023-03-21T04:09:51.920Z,9.32
2023-03-21T04:12:20.728Z,9.33
2023-03-21T04:15:23.299Z,9.31
2023-03-21T04:18:15.376Z,9.31
2023-03-21T04:21:03.623Z,9.30
2023-03-21T04:23:50.460Z,9.28
2023-03-21T04:26:39.552Z,9.28
2023-03-21T04:29:49.272Z,9.24
2023-03-21T04:32:56.808Z,9.15
2023-03-21T04:35:45.635Z,9.12
2023-03-21T04:38:33.766Z,9.09
2023-03-21T04:41:22.916Z,9.07
2023-03-21T04:44:11.872Z,9.04
2023-03-21T04:46:58.632Z,8.99
2023-03-21T04:49:45.816Z,8.98
2023-03-21T04:52:17.795Z,8.95
2023-03-21T04:54:55.337Z,8.94
2023-03-21T04:57:42.812Z,8.94
2023-03-21T05:00:29.607Z,8.94
2023-03-21T05:03:19.791Z,8.93
2023-03-21T05:06:09.544Z,8.92
2023-03-21T05:09:01.528Z,8.92
2023-03-21T05:11:49.696Z,8.91
2023-03-21T05:14:37.487Z,8.91
2023-03-21T05:17:28.472Z,8.92
2023-03-21T05:20:17.710Z,8.92
2023-03-21T05:23:04.445Z,8.92
2023-03-21T05:25:51.364Z,8.91
2023-03-21T05:28:50.040Z,8.92
2023-03-21T05:31:36.992Z,8.96
2023-03-21T05:34:29.681Z,8.96
2023-03-21T05:37:16.475Z,8.96
2023-03-21T05:40:09.728Z,8.98
2023-03-21T05:42:59.216Z,8.99
2023-03-21T05:45:50.432Z,9.00
2023-03-21T05:48:38.313Z,9.00
2023-03-21T05:51:33.953Z,9.06
2023-03-21T05:54:21.262Z,9.13
2023-03-21T05:57:09.668Z,9.39
2023-03-21T06:00:21.847Z,9.64
2023-03-21T06:03:28.236Z,9.71
2023-03-21T06:06:00.961Z,9.75
2023-03-21T06:08:34.375Z,9.78
2023-03-21T06:11:01.959Z,9.81
2023-03-21T06:13:32.919Z,9.81
2023-03-21T06:16:00.196Z,9.82
2023-03-21T06:18:28.057Z,9.79
2023-03-21T06:21:16.401Z,9.74
2023-03-21T06:23:43.572Z,9.67
2023-03-21T06:26:11.594Z,9.66
2023-03-21T06:28:39.678Z,9.63
2023-03-21T06:31:07.262Z,9.63
2023-03-21T06:33:34.640Z,9.63
2023-03-21T06:36:02.064Z,9.62
2023-03-21T06:38:29.768Z,9.62
2023-03-21T06:40:57.241Z,9.61
2023-03-21T06:43:25.634Z,9.62
2023-03-21T06:45:52.625Z,9.61
2023-03-21T06:48:21.001Z,9.63
2023-03-21T06:50:53.638Z,9.63
2023-03-21T06:53:27.147Z,9.66
2023-03-21T06:56:15.615Z,9.68
2023-03-21T06:58:43.584Z,9.72
2023-03-21T07:01:19.023Z,9.74
2023-03-21T07:03:58.955Z,9.77
2023-03-21T07:06:28.539Z,9.80
2023-03-21T07:08:56.404Z,9.83
2023-03-21T07:11:25.617Z,9.88
2023-03-21T07:13:52.969Z,9.92
2023-03-21T07:16:21.760Z,9.95
2023-03-21T07:18:48.966Z,10.01
2023-03-21T07:21:16.648Z,10.06
2023-03-21T07:23:44.343Z,10.14
2023-03-21T07:26:12.052Z,10.22
2023-03-21T07:28:39.475Z,10.31
2023-03-21T07:31:08.393Z,10.37
2023-03-21T07:33:35.383Z,10.45
2023-03-21T07:36:03.124Z,10.51
2023-03-21T07:38:31.116Z,10.61
2023-03-21T07:41:00.665Z,10.65
2023-03-21T07:43:31.200Z,10.69
2023-03-21T07:45:59.918Z,10.69
2023-03-21T07:48:28.660Z,10.69
2023-03-21T07:50:56.316Z,10.69
2023-03-21T07:53:23.393Z,10.70
2023-03-21T07:55:52.764Z,10.74
2023-03-21T07:58:19.777Z,10.76
2023-03-21T08:00:46.849Z,10.81
2023-03-21T08:03:13.783Z,10.84
2023-03-21T08:05:42.080Z,10.87
2023-03-21T08:08:09.169Z,10.88
2023-03-21T08:10:36.859Z,10.89
2023-03-21T08:13:04.497Z,10.91
2023-03-21T08:15:31.440Z,10.89
2023-03-21T08:18:00.280Z,10.89
2023-03-21T08:20:27.991Z,10.88
2023-03-21T08:22:55.359Z,10.88
2023-03-21T08:25:23.143Z,10.91
2023-03-21T08:27:51.772Z,10.93
2023-03-21T08:30:22.887Z,10.97
2023-03-21T08:32:51.018Z,11.00
2023-03-21T08:35:20.456Z,11.06
2023-03-21T08:37:48.708Z,11.10
2023-03-21T08:40:18.755Z,11.14
2023-03-21T08:42:47.059Z,11.16
2023-03-21T08:45:17.808Z,11.22
2023-03-21T08:47:46.174Z,11.24
2023-03-21T08:50:20.899Z,11.27
2023-03-21T08:52:48.980Z,11.32
2023-03-21T08:55:18.463Z,11.43
2023-03-21T08:57:46.538Z,11.49
2023-03-21T09:00:17.864Z,11.59
2023-03-21T09:02:48.500Z,11.67
2023-03-21T09:05:16.928Z,11.75
2023-03-21T09:07:45.725Z,11.76
2023-03-21T09:10:21.973Z,11.75
2023-03-21T09:12:52.609Z,11.73
2023-03-21T09:15:21.637Z,11.68
2023-03-21T09:17:52.742Z,11.60
2023-03-21T09:20:30.660Z,11.54
2023-03-21T09:22:59.700Z,11.46
2023-03-21T09:25:29.541Z,11.42
2023-03-21T09:27:58.122Z,11.47
2023-03-21T09:30:26.457Z,11.52
2023-03-21T09:32:55.692Z,11.58
2023-03-21T09:35:24.733Z,11.63
2023-03-21T09:37:51.840Z,11.67
2023-03-21T09:40:56.249Z,11.68
2023-03-21T09:43:39.661Z,11.61
2023-03-21T09:46:17.813Z,11.58
2023-03-21T09:49:07.780Z,11.56
2023-03-21T09:51:41.294Z,11.54
2023-03-21T09:54:26.987Z,11.55
2023-03-21T09:57:01.029Z,11.62
2023-03-21T09:59:41.177Z,11.69
2023-03-21T10:02:47.201Z,11.83
2023-03-21T10:05:21.017Z,11.92
2023-03-21T10:08:07.188Z,12.06
2023-03-21T10:11:03.789Z,12.22
2023-03-21T10:13:41.073Z,12.32
2023-03-21T10:16:17.314Z,12.39
2023-03-21T10:18:46.745Z,12.43
2023-03-21T10:21:47.478Z,12.46
2023-03-21T10:24:18.622Z,12.51
2023-03-21T10:26:48.084Z,12.54
2023-03-21T10:29:18.500Z,12.56
2023-03-21T10:31:47.544Z,12.60
2023-03-21T10:34:31.189Z,12.70
2023-03-21T10:37:01.838Z,12.74
2023-03-21T10:39:47.153Z,12.80
2023-03-21T10:42:29.645Z,12.86
2023-03-21T10:44:57.787Z,12.87
2023-03-21T10:47:30.175Z,12.91
2023-03-21T10:50:13.231Z,12.99
2023-03-21T10:52:51.348Z,12.99
2023-03-21T10:55:34.543Z,13.03
2023-03-21T10:58:10.884Z,13.04
2023-03-21T11:00:41.971Z,13.09
2023-03-21T11:03:43.680Z,13.12
2023-03-21T11:06:33.830Z,13.14
2023-03-21T11:09:17.805Z,13.20
2023-03-21T11:12:04.242Z,13.28
2023-03-21T11:14:41.825Z,13.35
2023-03-21T11:17:17.778Z,13.39
2023-03-21T11:20:05.484Z,13.39
2023-03-21T11:22:42.457Z,13.44
2023-03-21T11:25:39.265Z,13.60
2023-03-21T11:28:17.548Z,13.85
2023-03-21T11:30:58.000Z,13.95
2023-03-21T11:33:36.545Z,13.97
2023-03-21T11:36:18.608Z,14.01
2023-03-21T11:38:54.215Z,14.02
2023-03-21T11:41:35.080Z,14.07
2023-03-21T11:44:03.097Z,14.17
2023-03-21T11:46:39.660Z,14.34
2023-03-21T11:49:10.678Z,14.38
2023-03-21T11:51:53.123Z,14.48
2023-03-21T11:54:35.275Z,14.58
2023-03-21T11:57:12.729Z,14.66
2023-03-21T11:59:58.169Z,14.72
2023-03-21T12:03:22.266Z,14.73
2023-03-21T12:06:07.363Z,14.76
2023-03-21T12:08:54.398Z,14.87
2023-03-21T12:11:45.893Z,15.00
2023-03-21T12:14:39.645Z,15.10
2023-03-21T12:17:53.010Z,15.21
2023-03-21T12:20:59.783Z,15.28
2023-03-21T12:23:54.910Z,15.30
2023-03-21T12:26:38.489Z,15.30
2023-03-21T12:29:27.688Z,15.38
2023-03-21T12:32:20.804Z,15.50
2023-03-21T12:35:25.147Z,15.61
2023-03-21T12:38:16.826Z,15.72
2023-03-21T12:41:03.311Z,15.78
2023-03-21T12:43:50.858Z,15.83
2023-03-21T12:46:53.153Z,15.92
2023-03-21T12:49:53.435Z,15.98
2023-03-21T12:52:35.526Z,16.08
2023-03-21T12:55:16.686Z,16.19
2023-03-21T12:58:04.783Z,16.25
2023-03-21T13:00:46.115Z,16.21
2023-03-21T13:03:33.581Z,16.11
2023-03-21T13:06:09.614Z,16.09
2023-03-21T13:08:48.633Z,15.99
2023-03-21T13:11:21.764Z,15.96
2023-03-21T13:14:29.306Z,16.02
2023-03-21T13:17:02.122Z,16.04
2023-03-21T13:19:42.063Z,16.09
2023-03-21T13:22:21.117Z,16.17
2023-03-21T13:25:20.674Z,16.29
2023-03-21T13:28:18.673Z,16.41
2023-03-21T13:30:48.763Z,16.44
2023-03-21T13:33:44.589Z,16.46
2023-03-21T13:36:22.768Z,16.41
2023-03-21T13:38:53.674Z,16.32
2023-03-21T13:41:38.858Z,16.24
2023-03-21T13:44:23.494Z,16.24
2023-03-21T13:47:22.035Z,16.20
2023-03-21T13:50:33.494Z,16.27
2023-03-21T13:53:15.821Z,16.31
2023-03-21T13:55:49.113Z,16.42
2023-03-21T13:58:48.583Z,16.53
2023-03-21T14:01:26.559Z,16.80
2023-03-21T14:04:14.354Z,17.11
2023-03-21T14:07:08.036Z,17.32
2023-03-21T14:09:52.015Z,17.36
2023-03-21T14:12:30.351Z,17.39
2023-03-21T14:15:20.792Z,17.59
2023-03-21T14:17:56.473Z,17.58
2023-03-21T14:20:29.537Z,17.50
2023-03-21T14:22:56.977Z,17.53
2023-03-21T14:25:37.287Z,17.42
2023-03-21T14:28:24.542Z,17.35
2023-03-21T14:30:57.909Z,17.37
2023-03-21T14:33:40.499Z,17.49
2023-03-21T14:36:15.506Z,17.46
2023-03-21T14:38:43.389Z,17.39
2023-03-21T14:41:28.147Z,17.44
2023-03-21T14:44:27.909Z,17.49
2023-03-21T14:47:06.187Z,17.35
2023-03-21T14:49:36.244Z,17.20
2023-03-21T14:52:11.142Z,17.00
2023-03-21T14:54:44.019Z,16.79
2023-03-21T14:57:19.074Z,16.68
2023-03-21T14:59:51.913Z,16.59
2023-03-21T15:02:41.599Z,16.59
2023-03-21T15:05:26.922Z,16.64
2023-03-21T15:08:20.293Z,16.64
2023-03-21T15:11:07.228Z,16.56
2023-03-21T15:13:45.620Z,16.48
2023-03-21T15:16:15.007Z,16.34
2023-03-21T15:18:44.570Z,16.20
2023-03-21T15:21:26.511Z,16.06
2023-03-21T15:24:01.865Z,15.98
2023-03-21T15:26:31.828Z,15.89
2023-03-21T15:29:00.383Z,15.76
2023-03-21T15:31:38.664Z,15.62
2023-03-21T15:34:06.307Z,15.49
2023-03-21T15:36:43.156Z,15.41
2023-03-21T15:39:17.613Z,15.32
2023-03-21T15:42:02.288Z,15.26
2023-03-21T15:44:30.479Z,15.18
2023-03-21T15:46:57.671Z,15.11
2023-03-21T15:49:29.702Z,15.08
2023-03-21T15:52:16.934Z,15.00
2023-03-21T15:54:50.357Z,14.93
2023-03-21T15:57:33.182Z,14.89
2023-03-21T16:00:25.600Z,14.85
2023-03-21T16:03:00.700Z,14.82
2023-03-21T16:05:34.191Z,14.81
2023-03-21T16:08:20.072Z,14.87
2023-03-21T16:10:48.908Z,14.88
2023-03-21T16:13:16.627Z,14.89
2023-03-21T16:15:44.328Z,14.85
2023-03-21T16:18:21.266Z,14.84
2023-03-21T16:20:49.223Z,14.80
2023-03-21T16:23:16.379Z,14.78
2023-03-21T16:25:44.627Z,14.77
2023-03-21T16:28:17.380Z,14.72
2023-03-21T16:30:45.383Z,14.71
2023-03-21T16:33:13.685Z,14.67
2023-03-21T16:35:41.259Z,14.65
2023-03-21T16:38:12.618Z,14.66
2023-03-21T16:40:43.595Z,14.69
2023-03-21T16:43:11.620Z,14.75
2023-03-21T16:45:38.747Z,14.81
2023-03-21T16:48:08.781Z,14.81
2023-03-21T16:50:42.270Z,14.78
2023-03-21T16:53:09.378Z,14.74
2023-03-21T16:55:38.789Z,14.70
2023-03-21T16:58:06.297Z,14.64
2023-03-21T17:00:33.859Z,14.57
2023-03-21T17:03:12.049Z,14.48
2023-03-21T17:05:39.038Z,14.38
2023-03-21T17:08:06.517Z,14.32
2023-03-21T17:10:33.810Z,14.24
2023-03-21T17:13:01.670Z,14.20
2023-03-21T17:15:28.864Z,14.14
2023-03-21T17:17:55.984Z,14.06
2023-03-21T17:20:31.165Z,13.97
2023-03-21T17:22:58.740Z,13.75
2023-03-21T17:25:27.205Z,13.53
2023-03-21T17:27:54.428Z,13.31
2023-03-21T17:30:34.316Z,13.11
2023-03-21T17:33:01.696Z,12.92
2023-03-21T17:35:29.169Z,12.80
2023-03-21T17:37:58.532Z,12.72
2023-03-21T17:40:29.975Z,12.64
2023-03-21T17:43:01.383Z,12.58
2023-03-21T17:45:28.648Z,12.52
2023-03-21T17:47:56.862Z,12.48
2023-03-21T17:50:30.769Z,12.42
2023-03-21T17:52:57.915Z,12.39
2023-03-21T17:55:25.070Z,12.34
2023-03-21T17:57:52.466Z,12.31
2023-03-21T18:00:29.581Z,12.29
2023-03-21T18:02:57.413Z,12.25
2023-03-21T18:05:26.533Z,12.24
2023-03-21T18:08:09.768Z,12.21
2023-03-21T18:10:38.786Z,12.21
2023-03-21T18:13:06.651Z,12.20
2023-03-21T18:15:37.613Z,12.17
2023-03-21T18:18:05.834Z,12.13
2023-03-21T18:23:21.240Z,12.01
2023-03-21T18:25:49.802Z,11.95
2023-03-21T18:28:20.572Z,11.88
2023-03-21T18:33:40.316Z,11.73
2023-03-21T18:36:09.994Z,11.68
2023-03-21T18:38:37.477Z,11.64
2023-03-21T18:41:07.820Z,11.61
2023-03-21T18:46:23.953Z,11.49
2023-03-21T18:48:51.854Z,11.52
2023-03-21T18:51:19.312Z,11.54
2023-03-21T18:53:46.501Z,11.56
2023-03-21T18:56:54.723Z,11.56
2023-03-21T18:59:01.898Z,11.58
2023-03-21T19:01:28.950Z,11.60
2023-03-21T19:04:20.113Z,11.61
2023-03-21T19:06:47.833Z,11.61
2023-03-21T19:09:15.017Z,11.63
2023-03-21T19:11:42.716Z,11.64
2023-03-21T19:14:12.912Z,11.68
2023-03-21T19:17:14.969Z,11.71
2023-03-21T19:19:29.640Z,11.71
2023-03-21T19:21:57.209Z,11.73
2023-03-21T19:24:28.267Z,11.74
2023-03-21T19:26:55.968Z,11.74
2023-03-21T19:29:23.047Z,11.74
2023-03-21T19:31:51.254Z,11.73
2023-03-21T19:34:19.076Z,11.74
2023-03-21T19:36:51.571Z,11.74
2023-03-21T19:39:22.690Z,11.71
2023-03-21T19:41:51.666Z,11.70
2023-03-21T19:44:21.605Z,11.68
2023-03-21T19:46:51.037Z,11.69
2023-03-21T19:49:34.514Z,11.70
2023-03-21T19:52:10.315Z,11.69
2023-03-21T19:54:37.668Z,11.70
2023-03-21T19:57:04.904Z,11.67
2023-03-21T19:59:32.168Z,11.63
2023-03-21T20:02:21.574Z,11.58
2023-03-21T20:04:46.786Z,11.57
2023-03-21T20:07:13.829Z,11.57
2023-03-21T20:09:51.915Z,11.55
2023-03-21T20:12:21.893Z,11.49
2023-03-21T20:14:49.251Z,11.41
2023-03-21T20:17:16.907Z,11.34
2023-03-21T20:19:43.950Z,11.30
2023-03-21T20:22:21.943Z,11.28
2023-03-21T20:24:55.219Z,11.27
2023-03-21T20:27:25.673Z,11.29
2023-03-21T20:30:09.048Z,11.34
2023-03-21T20:32:38.466Z,11.37
2023-03-21T20:35:19.205Z,11.39
2023-03-21T20:37:49.799Z,11.40
2023-03-21T20:40:18.911Z,11.40
2023-03-21T20:42:48.660Z,11.42
2023-03-21T20:45:17.295Z,11.41
2023-03-21T20:47:44.376Z,11.38
2023-03-21T20:50:14.052Z,11.34
2023-03-21T20:53:06.531Z,11.33
2023-03-21T20:55:29.550Z,11.35
2023-03-21T20:57:56.558Z,11.40
2023-03-21T21:00:24.621Z,11.42
2023-03-21T21:02:51.913Z,11.44
2023-03-21T21:05:35.487Z,11.45
2023-03-21T21:08:03.608Z,11.45
2023-03-21T21:10:33.677Z,11.46
2023-03-21T21:13:01.341Z,11.47
2023-03-21T21:15:28.815Z,11.48
2023-03-21T21:18:06.165Z,11.48
2023-03-21T21:20:35.158Z,11.49
2023-03-21T21:23:02.624Z,11.45
2023-03-21T21:25:34.181Z,11.39
2023-03-21T21:28:02.130Z,11.29
2023-03-21T21:30:32.479Z,11.18
2023-03-21T21:33:00.842Z,11.09
2023-03-21T21:35:28.174Z,11.01
2023-03-21T21:37:55.197Z,10.94
2023-03-21T21:40:23.425Z,10.88
2023-03-21T21:42:50.825Z,10.81
2023-03-21T21:45:18.975Z,10.76
2023-03-21T21:47:46.490Z,10.71
2023-03-21T21:50:14.423Z,10.67
2023-03-21T21:52:43.828Z,10.62
2023-03-21T21:55:13.081Z,10.59
2023-03-21T21:57:40.546Z,10.54
2023-03-21T22:00:13.562Z,10.51
2023-03-21T22:02:42.638Z,10.49
2023-03-21T22:05:10.545Z,10.47
2023-03-21T22:07:38.088Z,10.46
2023-03-21T22:10:06.848Z,10.45
2023-03-21T22:12:34.365Z,10.46
2023-03-21T22:15:02.060Z,10.48
2023-03-21T22:17:29.140Z,10.52
2023-03-21T22:20:05.478Z,10.56
2023-03-21T22:22:37.610Z,10.56
2023-03-21T22:25:07.998Z,10.53
2023-03-21T22:27:36.061Z,10.49
2023-03-21T22:30:05.256Z,10.48
2023-03-21T22:32:36.802Z,10.44
2023-03-21T22:35:06.942Z,10.40
2023-03-21T22:37:36.871Z,10.36
2023-03-21T22:40:08.801Z,10.34
2023-03-21T22:42:37.539Z,10.30
2023-03-21T22:45:06.135Z,10.26
2023-03-21T22:47:33.745Z,10.23
2023-03-21T22:50:00.856Z,10.18
2023-03-21T22:52:28.189Z,10.14
2023-03-21T22:54:55.480Z,10.14
2023-03-21T22:57:22.740Z,10.12
2023-03-21T22:59:49.855Z,10.13
2023-03-21T23:02:17.232Z,10.08
2023-03-21T23:04:44.451Z,10.05
2023-03-21T23:07:11.582Z,10.04
2023-03-21T23:09:38.588Z,10.01
2023-03-21T23:12:05.891Z,9.98
2023-03-21T23:14:32.893Z,9.93
2023-03-21T23:17:00.172Z,9.89
2023-03-21T23:19:28.809Z,9.84
2023-03-21T23:21:56.710Z,9.79
2023-03-21T23:24:24.193Z,9.73
2023-03-21T23:26:51.379Z,9.67
2023-03-21T23:29:18.640Z,9.59
2023-03-21T23:31:45.733Z,9.52
2023-03-21T23:34:13.792Z,9.46
2023-03-21T23:36:41.104Z,9.41
2023-03-21T23:39:09.208Z,9.36
2023-03-21T23:41:36.308Z,9.31
2023-03-21T23:44:03.829Z,9.28
2023-03-21T23:46:31.200Z,9.25
2023-03-21T23:48:58.304Z,9.21
2023-03-21T23:51:25.427Z,9.17
2023-03-21T23:53:53.366Z,9.12
2023-03-21T23:56:24.060Z,9.04
2023-03-21T23:58:51.715Z,9.02
